createdAt,value
2024-02-19T00:00:27.527Z,10.35
2024-02-19T00:03:04.105Z,9.90
2024-02-19T00:05:37.090Z,8.80
2024-02-19T00:08:10.062Z,9.90
2024-02-19T00:10:43.159Z,9.57
2024-02-19T00:13:16.287Z,10.00
2024-02-19T00:15:51.588Z,9.63
2024-02-19T00:18:24.666Z,9.55
2024-02-19T00:20:57.596Z,9.43
2024-02-19T00:23:30.956Z,10.13
2024-02-19T00:26:04.044Z,8.60
2024-02-19T00:28:36.929Z,8.60
2024-02-19T00:31:14.432Z,10.32
2024-02-19T00:33:48.892Z,7.88
2024-02-19T00:36:22.122Z,8.02
2024-02-19T00:38:55.429Z,8.00
2024-02-19T00:41:28.534Z,9.60
2024-02-19T00:44:01.454Z,9.38
2024-02-19T00:46:35.700Z,9.48
2024-02-19T00:49:08.653Z,9.10
2024-02-19T00:51:43.549Z,7.33
2024-02-19T00:54:16.484Z,8.35
2024-02-19T00:56:49.624Z,9.75
2024-02-19T00:59:22.505Z,8.45
2024-02-19T01:01:56.921Z,9.00
2024-02-19T01:04:30.007Z,8.50
2024-02-19T01:07:03.004Z,9.03
2024-02-19T01:09:35.932Z,8.77
2024-02-19T01:12:09.504Z,8.70
2024-02-19T01:14:42.482Z,8.55
2024-02-19T01:17:16.725Z,9.30
2024-02-19T01:19:49.648Z,9.20
2024-02-19T01:22:22.551Z,10.18
2024-02-19T01:24:55.638Z,9.52
2024-02-19T01:27:29.871Z,9.80
2024-02-19T01:30:02.800Z,9.95
2024-02-19T01:32:38.316Z,11.18
2024-02-19T01:35:13.023Z,10.80
2024-02-19T01:37:46.434Z,10.70
2024-02-19T01:40:19.421Z,11.05
2024-02-19T01:43:03.239Z,11.48
2024-02-19T01:45:36.234Z,10.30
2024-02-19T01:48:11.501Z,11.67
2024-02-19T01:50:46.330Z,10.18
2024-02-19T01:53:19.360Z,10.05
2024-02-19T01:55:52.447Z,11.03
2024-02-19T01:58:25.471Z,11.23
2024-02-19T02:01:00.214Z,11.47
2024-02-19T02:03:36.309Z,10.45
2024-02-19T02:06:09.217Z,11.07
2024-02-19T02:08:42.118Z,11.50
2024-02-19T02:11:15.028Z,11.90
2024-02-19T02:13:47.956Z,10.88
2024-02-19T02:16:26.407Z,10.25
2024-02-19T02:19:00.785Z,11.45
2024-02-19T02:21:35.012Z,10.77
2024-02-19T02:24:08.040Z,10.70
2024-02-19T02:26:42.466Z,11.63
2024-02-19T02:29:15.348Z,10.13
2024-02-19T02:31:48.251Z,9.93
2024-02-19T02:34:21.206Z,10.70
2024-02-19T02:36:54.166Z,11.73
2024-02-19T02:39:27.125Z,10.88
2024-02-19T02:42:01.356Z,10.65
2024-02-19T02:44:34.266Z,11.82
2024-02-19T02:47:07.317Z,10.63
2024-02-19T02:49:40.363Z,10.40
2024-02-19T02:52:13.457Z,11.13
2024-02-19T02:54:46.437Z,11.20
2024-02-19T02:57:20.705Z,11.63
2024-02-19T02:59:53.741Z,11.32
2024-02-19T03:02:26.695Z,9.80
2024-02-19T03:04:59.581Z,11.27
2024-02-19T03:07:32.573Z,10.60
2024-02-19T03:10:06.295Z,10.95
2024-02-19T03:12:41.109Z,9.82
2024-02-19T03:15:14.105Z,10.48
2024-02-19T03:17:47.077Z,9.98
2024-02-19T03:20:20.845Z,9.75
2024-02-19T03:22:54.366Z,9.82
2024-02-19T03:25:27.328Z,8.95
2024-02-19T03:28:02.052Z,8.63
2024-02-19T03:30:35.504Z,9.88
2024-02-19T03:33:08.638Z,9.35
2024-02-19T03:35:41.576Z,9.20
2024-02-19T03:38:14.529Z,9.27
2024-02-19T03:40:47.449Z,9.15
2024-02-19T03:43:21.810Z,9.55
2024-02-19T03:45:56.861Z,9.82
2024-02-19T03:48:30.268Z,9.05
2024-02-19T03:51:03.215Z,8.93
2024-02-19T03:53:36.126Z,9.35
2024-02-19T03:56:09.216Z,8.93
2024-02-19T03:58:43.514Z,9.57
2024-02-19T04:01:16.541Z,10.40
2024-02-19T04:03:49.728Z,9.63
2024-02-19T04:06:22.676Z,8.90
2024-02-19T04:08:55.558Z,7.80
2024-02-19T04:11:28.723Z,8.52
2024-02-19T04:14:03.010Z,8.73
2024-02-19T04:16:35.912Z,9.27
2024-02-19T04:19:09.044Z,9.50
2024-02-19T04:21:46.209Z,9.03
2024-02-19T04:24:19.236Z,8.93
2024-02-19T04:26:52.109Z,9.02
2024-02-19T04:29:26.483Z,9.50
2024-02-19T04:31:59.727Z,9.38
2024-02-19T04:34:36.518Z,7.63
2024-02-19T04:37:11.370Z,9.18
2024-02-19T04:39:44.416Z,8.83
2024-02-19T04:42:17.452Z,8.70
2024-02-19T04:44:51.703Z,9.93
2024-02-19T04:47:24.653Z,8.88
2024-02-19T04:49:57.728Z,9.60
2024-02-19T04:52:30.721Z,9.07
2024-02-19T04:55:04.680Z,8.07
2024-02-19T04:57:37.783Z,9.75
2024-02-19T05:00:13.591Z,8.55
2024-02-19T05:02:46.651Z,8.70
2024-02-19T05:05:19.650Z,8.80
2024-02-19T05:07:52.571Z,9.00
2024-02-19T05:10:25.513Z,8.73
2024-02-19T05:12:58.492Z,8.35
2024-02-19T05:15:32.765Z,8.10
2024-02-19T05:18:06.319Z,8.40
2024-02-19T05:20:40.342Z,9.05
2024-02-19T05:25:45.979Z,8.07
2024-02-19T05:28:19.059Z,8.95
2024-02-19T05:30:53.854Z,8.83
2024-02-19T05:33:26.843Z,8.35
2024-02-19T05:35:59.694Z,8.35
2024-02-19T05:38:32.785Z,8.55
2024-02-19T05:41:06.044Z,8.80
2024-02-19T05:43:38.966Z,9.30
2024-02-19T05:46:13.308Z,9.30
2024-02-19T05:48:46.426Z,9.60
2024-02-19T05:51:19.385Z,8.95
2024-02-19T05:53:52.236Z,8.90
2024-02-19T05:56:26.213Z,9.23
2024-02-19T06:01:33.264Z,7.55
2024-02-19T06:04:06.250Z,8.32
2024-02-19T06:06:40.555Z,10.85
2024-02-19T06:09:13.467Z,10.23
2024-02-19T06:11:46.856Z,9.02
2024-02-19T06:14:19.758Z,9.82
2024-02-19T06:16:54.052Z,9.63
2024-02-19T06:19:27.166Z,10.30
2024-02-19T06:22:00.254Z,11.20
2024-02-19T06:24:33.389Z,10.40
2024-02-19T06:27:07.871Z,8.87
2024-02-19T06:29:40.892Z,10.20
2024-02-19T06:32:15.213Z,10.60
2024-02-19T06:34:48.224Z,8.90
2024-02-19T06:37:21.395Z,9.90
2024-02-19T06:39:54.837Z,9.50
2024-02-19T06:42:27.844Z,10.23
2024-02-19T06:45:01.011Z,10.75
2024-02-19T06:47:35.344Z,10.43
2024-02-19T06:50:08.799Z,10.45
2024-02-19T06:52:46.035Z,10.25
2024-02-19T06:55:19.452Z,11.48
2024-02-19T06:57:52.438Z,10.57
2024-02-19T07:00:25.388Z,8.00
2024-02-19T07:02:59.609Z,11.15
2024-02-19T07:05:32.739Z,10.55
2024-02-19T07:08:06.421Z,10.10
2024-02-19T07:10:39.777Z,11.07
2024-02-19T07:13:12.800Z,10.80
2024-02-19T07:15:45.752Z,10.83
2024-02-19T07:18:20.196Z,11.68
2024-02-19T07:20:53.201Z,10.63
2024-02-19T07:23:26.158Z,10.05
2024-02-19T07:25:59.034Z,10.57
2024-02-19T07:28:31.998Z,11.43
2024-02-19T07:31:05.334Z,11.45
2024-02-19T07:33:39.719Z,13.27
2024-02-19T07:36:12.686Z,11.50
2024-02-19T07:38:45.581Z,10.50
2024-02-19T07:41:18.874Z,11.25
2024-02-19T07:43:52.258Z,10.80
2024-02-19T07:46:25.297Z,11.35
2024-02-19T07:48:59.887Z,11.25
2024-02-19T07:51:32.852Z,11.40
2024-02-19T07:54:05.878Z,12.10
2024-02-19T07:56:38.800Z,11.83
2024-02-19T07:59:11.986Z,12.95
2024-02-19T08:01:45.072Z,10.93
2024-02-19T08:04:19.822Z,14.07
2024-02-19T08:06:55.755Z,11.27
2024-02-19T08:09:29.368Z,13.27
2024-02-19T08:12:02.477Z,13.88
2024-02-19T08:14:36.669Z,13.63
2024-02-19T08:17:10.102Z,13.68
2024-02-19T08:19:44.355Z,13.75
2024-02-19T08:22:17.267Z,13.23
2024-02-19T08:24:50.417Z,12.82
2024-02-19T08:27:23.368Z,14.27
2024-02-19T08:29:56.313Z,13.90
2024-02-19T08:32:29.787Z,13.80
2024-02-19T08:35:04.338Z,13.48
2024-02-19T08:37:40.488Z,11.88
2024-02-19T08:40:13.531Z,14.40
2024-02-19T08:42:46.678Z,13.93
2024-02-19T08:45:22.762Z,13.50
2024-02-19T08:47:57.314Z,14.68
2024-02-19T08:50:31.708Z,13.30
2024-02-19T08:53:04.893Z,13.73
2024-02-19T08:55:37.821Z,14.43
2024-02-19T08:58:10.893Z,14.45
2024-02-19T09:00:43.926Z,15.32
2024-02-19T09:03:17.009Z,13.93
2024-02-19T09:05:51.404Z,14.30
2024-02-19T09:08:24.414Z,14.27
2024-02-19T09:10:57.507Z,14.98
2024-02-19T09:13:30.469Z,14.73
2024-02-19T09:16:03.628Z,15.40
2024-02-19T09:18:36.905Z,13.88
2024-02-19T09:21:11.131Z,15.90
2024-02-19T09:23:43.996Z,14.63
2024-02-19T09:26:17.201Z,19.75
2024-02-19T09:28:50.116Z,14.82
2024-02-19T09:31:25.031Z,14.35
2024-02-19T09:33:58.186Z,15.77
2024-02-19T09:36:32.449Z,15.50
2024-02-19T09:39:05.357Z,15.57
2024-02-19T09:41:38.468Z,15.45
2024-02-19T09:44:11.655Z,15.17
2024-02-19T09:46:47.198Z,17.02
2024-02-19T09:49:23.061Z,15.50
2024-02-19T09:51:59.357Z,15.88
2024-02-19T09:54:32.390Z,15.93
2024-02-19T09:57:10.462Z,15.73
2024-02-19T09:59:46.168Z,18.17
2024-02-19T10:02:20.907Z,15.48
2024-02-19T10:04:54.013Z,17.35
2024-02-19T10:07:28.512Z,16.17
2024-02-19T10:10:01.511Z,17.42
2024-02-19T10:12:35.095Z,16.58
2024-02-19T10:15:09.060Z,15.40
2024-02-19T10:20:14.899Z,15.30
2024-02-19T10:22:49.342Z,18.83
2024-02-19T10:25:22.263Z,17.98
2024-02-19T10:27:56.414Z,19.20
2024-02-19T10:30:29.757Z,18.45
2024-02-19T10:33:02.925Z,19.70
2024-02-19T10:35:35.904Z,18.10
2024-02-19T10:38:12.776Z,18.33
2024-02-19T10:40:45.985Z,19.35
2024-02-19T10:43:20.117Z,21.02
2024-02-19T10:45:53.952Z,21.88
2024-02-19T10:48:27.582Z,20.13
2024-02-19T10:51:04.956Z,20.33
2024-02-19T10:53:39.970Z,21.48
2024-02-19T10:56:18.045Z,20.13
2024-02-19T10:58:54.790Z,19.83
2024-02-19T11:01:41.958Z,20.60
2024-02-19T11:04:20.866Z,19.60
2024-02-19T11:06:56.036Z,20.38
2024-02-19T11:09:35.472Z,19.23
2024-02-19T11:12:15.457Z,20.05
2024-02-19T11:14:52.179Z,21.17
2024-02-19T11:17:25.415Z,19.90
2024-02-19T11:19:58.384Z,21.10
2024-02-19T11:22:31.891Z,20.73
2024-02-19T11:25:06.873Z,20.23
2024-02-19T11:27:41.142Z,21.73
2024-02-19T11:30:15.458Z,20.58
2024-02-19T11:32:48.939Z,21.88
2024-02-19T11:35:22.031Z,19.23
2024-02-19T11:37:55.017Z,21.45
2024-02-19T11:40:32.629Z,21.52
2024-02-19T11:43:06.749Z,20.90
2024-02-19T11:45:40.216Z,20.75
2024-02-19T11:48:13.924Z,21.92
2024-02-19T11:50:47.234Z,21.60
2024-02-19T11:53:22.875Z,23.70
2024-02-19T11:56:01.695Z,22.58
2024-02-19T11:58:34.697Z,22.27
2024-02-19T12:01:07.796Z,25.90
2024-02-19T12:03:43.147Z,22.60
2024-02-19T12:06:16.082Z,25.60
2024-02-19T12:08:49.005Z,25.88
2024-02-19T12:11:23.854Z,22.53
2024-02-19T12:13:56.937Z,24.77
2024-02-19T12:16:30.478Z,24.83
2024-02-19T12:19:03.608Z,24.15
2024-02-19T12:21:36.967Z,29.27
2024-02-19T12:24:12.062Z,24.43
2024-02-19T12:26:46.596Z,24.88
2024-02-19T12:29:19.479Z,24.52
2024-02-19T12:31:52.379Z,21.70
2024-02-19T12:34:25.522Z,24.35
2024-02-19T12:36:58.680Z,25.05
2024-02-19T12:39:31.956Z,23.50
2024-02-19T12:42:09.523Z,25.20
2024-02-19T12:44:43.925Z,28.27
2024-02-19T12:47:16.876Z,25.88
2024-02-19T12:49:49.983Z,24.63
2024-02-19T12:52:26.639Z,26.98
2024-02-19T12:54:59.719Z,25.38
2024-02-19T12:57:34.100Z,25.10
2024-02-19T13:00:09.799Z,26.27
2024-02-19T13:02:42.825Z,24.65
2024-02-19T13:05:16.064Z,26.52
2024-02-19T13:07:49.690Z,25.20
2024-02-19T13:10:22.726Z,24.95
2024-02-19T13:12:57.040Z,24.60
2024-02-19T13:15:30.976Z,27.30
2024-02-19T13:20:37.229Z,25.92
2024-02-19T13:23:12.866Z,25.02
2024-02-19T13:25:45.881Z,27.33
2024-02-19T13:28:20.436Z,29.42
2024-02-19T13:30:53.354Z,28.27
2024-02-19T13:33:26.798Z,28.70
2024-02-19T13:36:00.412Z,29.00
2024-02-19T13:38:33.465Z,30.80
2024-02-19T13:41:07.805Z,28.47
2024-02-19T13:43:43.473Z,30.42
2024-02-19T13:46:20.817Z,29.38
2024-02-19T13:49:01.646Z,29.73
2024-02-19T13:51:34.835Z,29.00
2024-02-19T13:54:08.102Z,29.25
2024-02-19T13:56:41.430Z,28.90
2024-02-19T13:59:15.783Z,28.35
2024-02-19T14:01:48.788Z,28.58
2024-02-19T14:04:21.787Z,29.30
2024-02-19T14:06:54.856Z,26.33
2024-02-19T14:09:28.227Z,29.38
2024-02-19T14:12:01.070Z,28.58
2024-02-19T14:14:35.347Z,28.27
2024-02-19T14:17:11.834Z,28.65
2024-02-19T14:19:46.154Z,28.83
2024-02-19T14:22:19.184Z,27.13
2024-02-19T14:24:52.779Z,29.90
2024-02-19T14:27:26.195Z,29.23
2024-02-19T14:30:02.178Z,30.75
2024-02-19T14:32:35.212Z,30.85
2024-02-19T14:35:10.023Z,30.42
2024-02-19T14:37:47.566Z,28.63
2024-02-19T14:40:20.978Z,29.52
2024-02-19T14:42:54.267Z,29.85
2024-02-19T14:45:28.863Z,31.05
2024-02-19T14:48:02.301Z,31.85
2024-02-19T14:50:35.672Z,30.17
2024-02-19T14:53:09.012Z,28.23
2024-02-19T14:55:41.925Z,30.27
2024-02-19T14:58:15.071Z,29.43
2024-02-19T15:00:50.481Z,29.30
2024-02-19T15:03:23.808Z,31.33
2024-02-19T15:05:56.805Z,30.27
2024-02-19T15:08:29.877Z,31.67
2024-02-19T15:11:03.876Z,28.40
2024-02-19T15:13:37.326Z,20.55
2024-02-19T15:16:12.279Z,17.23
2024-02-19T15:18:45.384Z,13.00
2024-02-19T15:21:18.473Z,11.50
2024-02-19T15:23:51.502Z,7.53
2024-02-19T15:26:25.313Z,5.90
2024-02-19T15:28:59.068Z,4.38
2024-02-19T15:31:36.112Z,4.93
2024-02-19T15:34:10.947Z,4.22
2024-02-19T15:36:44.104Z,2.65
2024-02-19T15:39:20.361Z,2.55
2024-02-19T15:41:53.658Z,3.28
2024-02-19T15:44:26.523Z,3.17
2024-02-19T15:47:00.831Z,2.63
2024-02-19T15:49:34.187Z,3.28
2024-02-19T15:52:08.107Z,3.25
2024-02-19T15:57:15.716Z,3.70
2024-02-19T15:59:48.672Z,5.00
2024-02-19T16:02:23.075Z,3.50
2024-02-19T16:04:56.232Z,3.90
2024-02-19T16:07:29.560Z,4.57
2024-02-19T16:10:02.940Z,5.13
2024-02-19T16:12:36.008Z,6.45
2024-02-19T16:15:09.637Z,5.57
2024-02-19T16:17:44.206Z,5.53
2024-02-19T16:20:17.189Z,5.38
2024-02-19T16:22:52.057Z,4.85
2024-02-19T16:25:25.098Z,4.40
2024-02-19T16:27:58.715Z,4.15
2024-02-19T16:30:31.804Z,4.60
2024-02-19T16:33:06.531Z,4.75
2024-02-19T16:35:39.529Z,4.63
2024-02-19T16:38:12.822Z,4.95
2024-02-19T16:40:46.951Z,4.93
2024-02-19T16:43:19.878Z,4.93
2024-02-19T16:45:53.494Z,5.57
2024-02-19T16:48:28.065Z,5.13
2024-02-19T16:51:01.085Z,5.00
2024-02-19T16:53:35.102Z,5.53
2024-02-19T16:56:10.735Z,6.20
2024-02-19T16:58:43.737Z,6.47
2024-02-19T17:01:18.686Z,6.07
2024-02-19T17:03:53.614Z,6.10
2024-02-19T17:06:26.632Z,5.93
2024-02-19T17:09:04.887Z,6.70
2024-02-19T17:11:38.032Z,6.03
2024-02-19T17:14:11.228Z,5.95
2024-02-19T17:16:50.352Z,6.17
2024-02-19T17:19:25.488Z,5.30
2024-02-19T17:21:58.585Z,5.20
2024-02-19T17:24:33.594Z,5.47
2024-02-19T17:27:06.729Z,5.03
2024-02-19T17:29:41.824Z,4.40
2024-02-19T17:32:15.400Z,4.75
2024-02-19T17:34:52.511Z,4.53
2024-02-19T17:37:28.238Z,3.88
2024-02-19T17:40:01.410Z,3.95
2024-02-19T17:42:36.034Z,4.32
2024-02-19T17:45:10.617Z,3.33
2024-02-19T17:50:18.781Z,2.90
2024-02-19T17:52:51.744Z,2.65
2024-02-19T17:55:24.880Z,2.93
2024-02-19T17:57:57.982Z,3.63
2024-02-19T18:00:31.007Z,4.35
2024-02-19T18:03:04.059Z,5.25
2024-02-19T18:05:38.638Z,5.57
2024-02-19T18:08:11.671Z,5.82
2024-02-19T18:10:44.610Z,6.22
2024-02-19T18:13:19.580Z,6.17
2024-02-19T18:15:54.021Z,5.88
2024-02-19T18:18:27.952Z,7.83
2024-02-19T18:21:03.215Z,6.40
2024-02-19T18:23:36.103Z,6.53
2024-02-19T18:26:09.196Z,5.50
2024-02-19T18:28:42.202Z,5.25
2024-02-19T18:31:15.504Z,4.78
2024-02-19T18:33:48.499Z,6.15
2024-02-19T18:36:22.728Z,5.07
2024-02-19T18:38:55.721Z,4.80
2024-02-19T18:41:28.918Z,4.03
2024-02-19T18:44:06.161Z,4.95
2024-02-19T18:46:39.163Z,4.43
2024-02-19T18:49:12.185Z,4.55
2024-02-19T18:51:49.042Z,4.30
2024-02-19T18:54:23.603Z,4.10
2024-02-19T18:56:56.670Z,3.85
2024-02-19T18:59:29.621Z,4.25
2024-02-19T19:02:04.967Z,7.57
2024-02-19T19:04:38.131Z,5.70
2024-02-19T19:07:12.605Z,5.00
2024-02-19T19:09:46.267Z,7.38
2024-02-19T19:12:19.337Z,6.78
2024-02-19T19:14:52.824Z,5.33
2024-02-19T19:17:25.805Z,5.43
2024-02-19T19:19:58.935Z,5.80
2024-02-19T19:22:33.384Z,6.85
2024-02-19T19:25:07.270Z,6.80
2024-02-19T19:30:13.310Z,7.57
2024-02-19T19:32:46.404Z,6.75
2024-02-19T19:35:21.338Z,6.20
2024-02-19T19:37:55.729Z,7.30
2024-02-19T19:40:28.689Z,6.32
2024-02-19T19:43:01.698Z,6.70
2024-02-19T19:45:37.360Z,6.47
2024-02-19T19:48:10.376Z,6.22
2024-02-19T19:50:43.345Z,6.70
2024-02-19T19:53:20.930Z,6.20
2024-02-19T19:55:55.089Z,5.97
2024-02-19T19:58:32.313Z,6.60
2024-02-19T20:01:09.666Z,6.15
2024-02-19T20:03:49.632Z,7.35
2024-02-19T20:06:22.903Z,5.25
2024-02-19T20:08:57.242Z,5.45
2024-02-19T20:11:30.321Z,6.30
2024-02-19T20:14:03.346Z,5.43
2024-02-19T20:16:41.930Z,6.07
2024-02-19T20:19:15.105Z,6.45
2024-02-19T20:21:48.051Z,6.07
2024-02-19T20:24:25.495Z,5.27
2024-02-19T20:27:02.020Z,6.70
2024-02-19T20:29:35.312Z,5.53
2024-02-19T20:32:09.552Z,5.97
2024-02-19T20:34:45.472Z,6.32
2024-02-19T20:37:19.364Z,6.07
2024-02-19T20:39:53.766Z,7.20
2024-02-19T20:42:27.167Z,7.15
2024-02-19T20:45:00.107Z,6.67
2024-02-19T20:47:37.440Z,6.35
2024-02-19T20:50:13.022Z,6.50
2024-02-19T20:52:46.586Z,7.25
2024-02-19T20:55:22.290Z,7.88
2024-02-19T20:58:03.692Z,6.72
2024-02-19T21:00:36.776Z,5.97
2024-02-19T21:03:09.720Z,6.30
2024-02-19T21:05:48.583Z,6.03
2024-02-19T21:08:21.665Z,7.03
2024-02-19T21:10:57.059Z,6.90
2024-02-19T21:13:30.088Z,6.80
2024-02-19T21:16:04.199Z,7.78
2024-02-19T21:18:46.455Z,7.65
2024-02-19T21:21:29.810Z,7.82
2024-02-19T21:24:08.117Z,6.78
2024-02-19T21:26:42.854Z,7.60
2024-02-19T21:29:15.758Z,7.03
2024-02-19T21:31:48.766Z,7.10
2024-02-19T21:34:21.705Z,7.30
2024-02-19T21:36:57.849Z,7.33
2024-02-19T21:39:30.966Z,7.28
2024-02-19T21:42:05.811Z,7.17
2024-02-19T21:44:38.726Z,7.53
2024-02-19T21:47:13.609Z,7.23
2024-02-19T21:49:48.776Z,7.75
2024-02-19T21:52:21.955Z,7.35
2024-02-19T21:54:54.857Z,8.23
2024-02-19T21:57:29.088Z,10.38
2024-02-19T22:00:02.084Z,8.93
2024-02-19T22:02:37.535Z,8.48
2024-02-19T22:05:10.901Z,8.57
2024-02-19T22:07:44.235Z,7.55
2024-02-19T22:10:17.556Z,8.43
2024-02-19T22:12:51.933Z,7.50
2024-02-19T22:15:24.977Z,7.88
2024-02-19T22:17:57.935Z,7.20
2024-02-19T22:20:32.343Z,7.50
2024-02-19T22:23:05.577Z,6.40
2024-02-19T22:25:38.663Z,6.85
2024-02-19T22:28:13.003Z,6.60
2024-02-19T22:30:45.940Z,6.70
2024-02-19T22:33:19.061Z,6.63
2024-02-19T22:35:51.922Z,6.38
2024-02-19T22:38:31.459Z,6.43
2024-02-19T22:41:04.454Z,5.80
2024-02-19T22:43:38.801Z,6.38
2024-02-19T22:46:11.687Z,6.38
2024-02-19T22:48:44.651Z,6.33
2024-02-19T22:51:17.625Z,6.07
2024-02-19T22:53:50.792Z,6.38
2024-02-19T22:56:23.682Z,5.70
2024-02-19T22:59:06.928Z,6.07
2024-02-19T23:01:48.672Z,5.65
2024-02-19T23:04:22.118Z,6.60
2024-02-19T23:06:55.274Z,6.18
2024-02-19T23:09:28.357Z,6.63
2024-02-19T23:12:01.269Z,6.28
2024-02-19T23:14:35.585Z,6.60
2024-02-19T23:17:08.575Z,6.57
2024-02-19T23:19:41.610Z,7.13
2024-02-19T23:22:14.826Z,7.80
2024-02-19T23:24:47.861Z,7.18
2024-02-19T23:27:20.754Z,7.70
2024-02-19T23:29:55.212Z,7.43
2024-02-19T23:32:28.467Z,7.43
2024-02-19T23:35:01.475Z,7.85
2024-02-19T23:37:35.189Z,7.53
2024-02-19T23:40:17.416Z,7.93
2024-02-19T23:42:50.547Z,7.25
2024-02-19T23:45:24.842Z,7.73
2024-02-19T23:47:57.874Z,7.35
2024-02-19T23:50:30.891Z,7.50
2024-02-19T23:53:04.150Z,6.85
2024-02-19T23:55:37.146Z,7.13
2024-02-19T23:58:10.148Z,7.27
